首页
METAR-TAF:

METAR-TAF

机场 :

Lawson Army Airfield

哥伦布, 喬治亞, 美国

纬度: 32-20N, 经度: 084-50W, 海拔: 71米

当前天气观测

该预报发布于1小时和13分钟前的23:56 UTC
风速7节,风向西转西北
温度 18°C
湿度 45%
气压 1018 hPa
能見度: 16.1公里
天空无云

METAR: KLSF 072356Z AUTO 29007KT 10SM CLR 18/06 A3005 RMK AO2 SLP181 T01840056 10233 20184 53002

时间: 21:09 (01:09 UTC)

预报

该预报发布于4小时和9分钟前的21:00 UTC
预报有效从07日的 21点(UTC)到 09日的 03点(UTC)
风速10节,风向西,有时为15节阵风
能见度10公里或以上
天空无云
成为
从 07日的 23点(UTC)到 07日的 24点(UTC)
风速6节,风向多变
能見度: 1013
天空无云

TAF: KLSF 072100Z 0721/0903 28010G15KT 9999 SKC QNH3004INS BECMG 0723/0724 VRB06KT 9999 SKC QNH3006INS TX27/0821Z TN06/0810Z LAST NO AMDS AFT 0803 NEXT 1013

超过4000个机场的气象观测和天气预报(METAR&TAF报告)。

可查询的气象台以黄色和红色小点在地图上表示。

将鼠标移到小点上方,可查看气象台名称。

然后点击查看天气观测和预报。

如需切换地图:点击带黑十字的绿色按钮放大地图;点击带横线的绿色按钮缩小地图;或者点击绿色箭头查看邻近地区的地图。


METAR-TAF: